Terminal Aerodrome Forecast
Issued by NWS Kansas City/Pleasant Hill, MO

Home | Current Version | Previous Version | Text Only | Print | Product List | Glossary On
Versions: 1 2 3 4 5 6 7 8 9 10 11 12 13 14 15 16 17 18 19
000
FTUS43 KEAX 290708 AAA
TAFMCI
TAF AMD
KMCI 290708Z 2907/3006 36015KT 6SM -TSRA BR BKN040CB
      TEMPO 2907/2910 4SM TSRA BR BKN020CB
     FM291000 36008KT P6SM SCT050 BKN080=

USA.gov is the U.S. government's official web portal to all federal, state and local government web resources and services.